This is the latest recevied weather packets stored in our database for station/object KG4ZVW. If no packets are shown the sender has not sent any weather packets the latest 1 day(s).
| Time | Temp. | Humidity | Pressure | Rain* | Wind** | Luminosity | Snow |
|---|---|---|---|---|---|---|---|
| 1777994309 | 27.78° C | 61% | 1016.1 hPa | 0 mm | 2.24 m/s, 53° | 861 W/m² | - |
| 1777994005 | 27.78° C | 59% | 1016.1 hPa | 0 mm | 0.89 m/s, 61° | 842 W/m² | - |
| 1777993702 | 27.78° C | 60% | 1015.9 hPa | 0 mm | 2.68 m/s, 88° | 802 W/m² | - |
| 1777993417 | 27.78° C | 61% | 1015.9 hPa | 0 mm | 1.79 m/s, 19° | 789 W/m² | - |
| 1777993112 | 27.78° C | 62% | 1015.9 hPa | 0 mm | 2.24 m/s, 78° | 775 W/m² | - |
| 1777992812 | 27.78° C | 60% | 1015.9 hPa | 0 mm | 2.24 m/s, 38° | 765 W/m² | - |
| 1777992509 | 27.78° C | 59% | 1015.9 hPa | 0 mm | 2.68 m/s, 100° | 759 W/m² | - |
| 1777992204 | 27.78° C | 61% | 1015.9 hPa | 0 mm | 0.89 m/s, 37° | 744 W/m² | - |
| 1777991921 | 27.22° C | 61% | 1015.6 hPa | 0 mm | 3.13 m/s, 61° | 724 W/m² | - |
| 1777991615 | 27.22° C | 59% | 1015.6 hPa | 0 mm | 1.79 m/s, 72° | 717 W/m² | - |
| 1777991310 | 27.22° C | 61% | 1015.6 hPa | 0 mm | 3.13 m/s, 141° | 703 W/m² | - |
| 1777991006 | 27.22° C | 60% | 1015.8 hPa | 0 mm | 2.24 m/s, 57° | 686 W/m² | - |
| 1777990700 | 27.22° C | 61% | 1015.8 hPa | 0 mm | 2.68 m/s, 37° | 693 W/m² | - |
| 1777990420 | 27.22° C | 64% | 1015.8 hPa | 0 mm | 2.68 m/s, 38° | 679 W/m² | - |
| 1777990113 | 27.22° C | 61% | 1015.9 hPa | 0 mm | 3.13 m/s, 142° | 654 W/m² | - |
| 1777989808 | 26.67° C | 64% | 1015.9 hPa | 0 mm | 1.79 m/s, 84° | 636 W/m² | - |
| 1777989504 | 26.67° C | 61% | 1015.9 hPa | 0 mm | 1.79 m/s, 55° | 633 W/m² | - |
| 1777989220 | 26.11° C | 60% | 1015.9 hPa | 0 mm | 2.24 m/s, 75° | 591 W/m² | - |
| 1777988916 | 26.11° C | 61% | 1015.9 hPa | 0 mm | 2.68 m/s, 52° | 638 W/m² | - |
| 1777988609 | 26.11° C | 64% | 1015.9 hPa | 0 mm | 1.79 m/s, 37° | 244 W/m² | - |
| 1777988304 | 26.67° C | 65% | 1015.6 hPa | 0 mm | 2.68 m/s, 37° | 364 W/m² | - |
| 1777988019 | 26.67° C | 65% | 1015.6 hPa | 0 mm | 2.68 m/s, 28° | 647 W/m² | - |
| 1777987713 | 26.67° C | 65% | 1015.6 hPa | 0 mm | 2.24 m/s, 76° | 496 W/m² | - |
| 1777987409 | 26.11° C | 67% | 1015.5 hPa | 0 mm | 1.34 m/s, 360° | 613 W/m² | - |
| 1777987104 | 26.11° C | 68% | 1015.5 hPa | 0 mm | 1.79 m/s, 5° | 541 W/m² | - |
* Rain latest hour (hover to see other rain measurements)
** Current wind speed in m/s (hover to see current wind gust speed)